• Join FlightAware (Why Join?)
  • Login
  • US Flag 
07:22PM EDT


 

Airport Tracker/Info


-or-


 

Live Flight TrackerFlight Track Log ✈ UAL4202 ✈ 07-Apr-2013 ✈ KEWR - KSTL

Flight Track Log - Related Links

Times and Time Zones

All times are in EDT time to prevent confusion due to time zone crossing. See the UAL4202 flight status page for this flight to view local times or setup timezone preferences in your user account.

Time Position Orientation Groundspeed Altitude Reporting Facility
EDT Latitude Longitude Course Direction KTS MPH feet Rate Location/Type
05:11PM 40.6833 -74.1833 276° West 150 173 100  Level New York TRACON
05:12PM 40.6333 -74.2000 194° South 186 214 2,200 2,100 Climbing New York TRACON
05:13PM 40.6500 -74.2833 285° West 245 282 4,300 2,400 Climbing New York TRACON
05:14PM 40.7339 -74.5228 277° West  Level FlightAware Approximate
05:14PM 40.6833 -74.3667 298° West 235 270 7,100  Level New York TRACON
05:15PM 40.7453 -74.6477 277° West  Level FlightAware Approximate
05:15PM 40.7000 -74.4500 285° West 248 285 9,400  Level New York TRACON
05:16PM 40.7556 -74.7727 276° West  Level FlightAware Approximate
05:16PM 40.7333 -74.5333 298° West 267 307 10,700  Level New York TRACON
05:17PM 40.7500 -74.6333 282° West 274 315 13,000 1,620 Climbing New York TRACON
05:18PM 40.7572 -74.7461 275° West 263 303 14,400 960 Climbing New York Center
05:19PM 40.7703 -74.8511 279° West 285 328 15,200 900 Climbing New York Center
05:20PM 40.7850 -74.9669 280° West 313 360 16,200 900 Climbing New York Center
05:21PM 40.7994 -75.0858 279° West 318 366 17,100 840 Climbing New York Center
05:22PM 40.7928 -75.2058 266° West 323 372 18,000 900 Climbing New York Center
05:23PM 40.7764 -75.3117 258° West 330 380 18,900 900 Climbing New York Center
05:24PM 40.7467 -75.4331 252° West 336 387 19,900 840 Climbing New York Center
05:25PM 40.7089 -75.5428 246° West 336 387 20,700 900 Climbing New York Center
05:26PM 40.6644 -75.6600 243° Southwest 347 399 21,700 960 Climbing New York Center
05:27PM 40.6203 -75.7717 243° Southwest 352 405 22,700 900 Climbing New York Center
05:28PM 40.5778 -75.8889 245° Southwest 359 413 23,600 960 Climbing New York Center
05:29PM 40.5311 -76.0028 242° Southwest 359 413 24,700 1,020 Climbing New York Center
05:30PM 40.4886 -76.1142 243° Southwest 359 413 25,700 900 Climbing New York Center
05:31PM 40.4458 -76.2281 244° Southwest 354 407 26,600 900 Climbing New York Center
05:32PM 40.4011 -76.3392 242° Southwest 354 407 27,600 960 Climbing New York Center
05:33PM 40.3606 -76.4475 244° Southwest 354 407 28,600 960 Climbing New York Center
05:35PM 40.2725 -76.6689 243° Southwest 337 388 30,500 960 Climbing New York Center
05:36PM 40.2272 -76.7794 242° Southwest 337 388 31,500 960 Climbing New York Center
05:37PM 40.1844 -76.8817 241° Southwest 337 388 32,500 900 Climbing New York Center
05:38PM 40.1414 -76.9919 243° Southwest 337 388 33,400 840 Climbing New York Center
05:39PM 40.1042 -77.1000 246° West 343 395 34,300 900 Climbing New York Center
05:40PM 40.0611 -77.2044 242° Southwest 343 395 35,300 840 Climbing New York Center
05:41PM 40.0178 -77.3089 242° Southwest 338 389 36,000 180 Climbing New York Center
05:43PM 39.9603 -77.5631 254° West 333 383 36,000  Level Cleveland Center
05:44PM 39.9658 -77.6900 273° West 344 396 36,000  Level Cleveland Center
05:45PM 39.9689 -77.8172 272° West 356 410 36,000  Level Cleveland Center
05:46PM 39.9719 -77.9444 272° West 356 410 36,000  Level Cleveland Center
05:47PM 39.9750 -78.0772 272° West 356 410 36,000  Level Cleveland Center
05:48PM 39.9778 -78.2097 272° West 369 425 36,000  Level Cleveland Center
05:49PM 39.9800 -78.3236 271° West 369 425 36,000  Level Cleveland Center
05:50PM 39.9847 -78.4533 273° West 364 419 36,000  Level Cleveland Center
05:51PM 39.9850 -78.5889 270° West 369 425 36,000  Level Cleveland Center
05:52PM 39.9894 -78.7161 273° West 364 419 36,000  Level Cleveland Center
05:53PM 39.9914 -78.8433 271° West 364 419 36,000  Level Cleveland Center
05:54PM 39.9997 -78.9814 275° West 354 407 36,000  Level Cleveland Center
05:55PM 40.0014 -79.1033 271° West 349 402 36,000  Level Cleveland Center
05:56PM 40.0028 -79.2281 271° West 349 402 36,000  Level Cleveland Center
05:57PM 40.0042 -79.3525 271° West 349 402 36,000  Level Cleveland Center
05:58PM 40.0075 -79.4772 272° West 349 402 36,000  Level Cleveland Center
05:59PM 40.0086 -79.5992 271° West 349 402 36,000  Level Cleveland Center
06:00PM 40.0097 -79.7211 271° West 349 402 36,000  Level Cleveland Center
06:01PM 40.0128 -79.8458 272° West 349 402 36,000  Level Cleveland Center
06:02PM 40.0133 -79.9542 270° West 349 402 36,000  Level Cleveland Center
06:03PM 40.0161 -80.0789 272° West 349 402 36,000  Level Cleveland Center
06:04PM 40.0164 -80.2036 270° West 349 402 36,000  Level Cleveland Center
06:05PM 40.0169 -80.3283 270° West 344 396 36,000  Level Cleveland Center
06:06PM 40.0169 -80.4531 270° West 344 396 36,000  Level Cleveland Center
06:07PM 40.0192 -80.5750 271° West 344 396 36,000  Level Cleveland Center
06:08PM 40.0192 -80.7022 270° West 344 396 36,000  Level Cleveland Center
06:10PM 40.0147 -80.9208 269° West 345 397 36,000  Level Indianapolis Center
06:11PM 40.0131 -81.0489 269° West 349 402 36,000  Level Indianapolis Center
06:12PM 40.0117 -81.1742 269° West 345 397 36,000  Level Indianapolis Center
06:13PM 40.0092 -81.3022 269° West 348 400 36,000  Level Indianapolis Center
06:14PM 40.0067 -81.4300 269° West 348 400 36,000  Level Indianapolis Center
06:15PM 40.0047 -81.5586 269° West 350 403 36,000  Level Indianapolis Center
06:16PM 40.0022 -81.6867 269° West 351 404 36,000  Level Indianapolis Center
06:17PM 39.9989 -81.8206 268° West 353 406 36,000  Level Indianapolis Center
06:18PM 39.9967 -81.9486 269° West 351 404 36,000  Level Indianapolis Center
06:19PM 39.9928 -82.0961 268° West 348 400 36,000  Level Indianapolis Center
06:20PM 39.9892 -82.2244 268° West 349 402 36,000  Level Indianapolis Center
06:21PM 39.9861 -82.3514 268° West 348 400 36,000  Level Indianapolis Center
06:22PM 40.0053 -82.4775 281° West 353 406 36,000  Level Indianapolis Center
06:23PM 40.0244 -82.6006 282° West 346 398 36,000  Level Indianapolis Center
06:24PM 40.0431 -82.7267 281° West 352 405 36,000  Level Indianapolis Center
06:25PM 40.0631 -82.8517 282° West 351 404 36,000  Level Indianapolis Center
06:26PM 40.0872 -82.9972 282° West 351 404 36,000  Level Indianapolis Center
06:27PM 40.0864 -83.1256 270° West 352 405 36,000  Level Indianapolis Center
06:29PM 40.0786 -83.2533 265° West 352 405 36,000  Level Indianapolis Center
06:30PM 40.0678 -83.3817 264° West 355 409 36,000  Level Indianapolis Center
06:31PM 40.0594 -83.5092 265° West 355 409 36,000  Level Indianapolis Center
06:32PM 40.0492 -83.6589 265° West 356 410 36,000  Level Indianapolis Center
06:33PM 40.0389 -83.7864 264° West 354 407 36,000  Level Indianapolis Center
06:34PM 40.0283 -83.9150 264° West 356 410 36,000  Level Indianapolis Center
06:35PM 40.0192 -84.0447 265° West 358 412 36,000  Level Indianapolis Center
06:36PM 40.0089 -84.1742 264° West 357 411 36,000  Level Indianapolis Center
06:37PM 39.9986 -84.3036 264° West 358 412 36,000  Level Indianapolis Center
06:38PM 39.9869 -84.4575 264° West 363 418 36,000  Level Indianapolis Center
06:39PM 39.9750 -84.5869 263° West 360 414 36,000  Level Indianapolis Center
06:40PM 39.9639 -84.7175 264° West 359 413 36,000  Level Indianapolis Center
06:41PM 39.9522 -84.8497 263° West 365 420 36,000  Level Indianapolis Center
06:42PM 39.9406 -84.9800 263° West 364 419 36,000  Level Indianapolis Center
06:43PM 39.9294 -85.1117 264° West 365 420 36,000  Level Indianapolis Center
06:44PM 39.9186 -85.2447 264° West 367 422 36,000  Level Indianapolis Center
06:45PM 39.9047 -85.3967 263° West 361 415 36,000  Level Indianapolis Center
06:46PM 39.8925 -85.5278 263° West 362 417 36,000  Level Indianapolis Center
06:47PM 39.8817 -85.6606 264° West 366 421 36,000  Level Indianapolis Center
06:48PM 39.8697 -85.7908 263° West 361 415 36,000  Level Indianapolis Center
06:49PM 39.8550 -85.9367 263° West 364 419 36,000  Level Indianapolis Center
06:50PM 39.8431 -86.0658 263° West 361 415 36,000  Level Indianapolis Center
06:51PM 39.8317 -86.1975 264° West 365 420 36,000  Level Indianapolis Center
06:52PM 39.8172 -86.3256 262° West 360 414 36,000  Level Indianapolis Center
06:53PM 39.7925 -86.4556 256° West 365 420 36,000  Level Indianapolis Center
06:54PM 39.7625 -86.5794 253° West 365 420 36,000  Level Indianapolis Center
06:55PM 39.7314 -86.7042 252° West 363 418 36,000  Level Indianapolis Center
06:56PM 39.6942 -86.8547 252° West 366 421 36,000  Level Indianapolis Center
06:57PM 39.6639 -86.9789 252° West 360 414 36,000 -120 Level Indianapolis Center
06:58PM 39.6328 -87.1047 252° West 364 419 35,800 -420 Descending Indianapolis Center
07:00PM 39.5992 -87.2317 251° West 366 421 35,200 -600 Descending Indianapolis Center
07:01PM 39.5672 -87.3583 252° West 367 422 34,600 -600 Descending Indianapolis Center
07:02PM 39.5361 -87.4850 252° West 365 420 34,000 -660 Descending Indianapolis Center
07:03PM 39.5042 -87.6106 252° West 365 420 33,300 -780 Descending Indianapolis Center
07:04PM 39.4717 -87.7339 251° West 361 415 32,500 -1,320 Descending Indianapolis Center
07:05PM 39.4392 -87.8603 252° West 367 422 30,700 -1,980 Descending Indianapolis Center
07:05PM 39.4153 -87.9561 252° West 365 420 29,200 -1,620 Descending Kansas City Center
07:06PM 39.3831 -88.0797 251° West 364 419 28,000 -840 Descending Kansas City Center
07:07PM 39.3506 -88.2019 251° West 361 415 27,500 -600 Descending Kansas City Center
07:08PM 39.3169 -88.3244 251° West 361 415 26,900 -660 Descending Kansas City Center
07:09PM 39.2858 -88.4511 252° West 366 421 26,200 -660 Descending Kansas City Center
07:10PM 39.2497 -88.5800 250° West 377 434 25,600 -720 Descending Kansas City Center
07:12PM 39.2100 -88.7261 251° West 385 443 24,800 -900 Descending Kansas City Center
07:13PM 39.1747 -88.8581 251° West 389 448 23,800 -1,260 Descending Kansas City Center
07:14PM 39.1411 -88.9897 252° West 390 449 22,300 -1,500 Descending Kansas City Center
07:15PM 39.1058 -89.1144 250° West 377 434 20,700 -1,680 Descending Kansas City Center
07:15PM 39.0822 -89.1631 238° Southwest 377 434 19,500 -1,800 Descending FAA TRACON SMA TRACON (SMA)
07:16PM 39.0722 -89.2022 252° West 377 434 19,000 -1,380 Descending FAA TRACON SMA TRACON (SMA)
07:16PM 39.0625 -89.2411 252° West 372 428 18,600 -1,680 Descending FAA TRACON SMA TRACON (SMA)
07:16PM 39.0517 -89.2892 254° West 363 418 17,900 -1,980 Descending FAA TRACON SMA TRACON (SMA)
07:17PM 39.0433 -89.3272 254° West 361 415 17,300 -1,680 Descending FAA TRACON SMA TRACON (SMA)
07:17PM 39.0336 -89.3644 251° West 356 410 16,800 -1,800 Descending FAA TRACON SMA TRACON (SMA)
07:17PM 39.0225 -89.4106 253° West 352 405 16,100 -1,800 Descending FAA TRACON SMA TRACON (SMA)
07:18PM 39.0153 -89.4478 256° West 351 404 15,600 -1,500 Descending FAA TRACON SMA TRACON (SMA)
07:18PM 39.0064 -89.4842 253° West 347 399 15,100 -960 Descending FAA TRACON SMA TRACON (SMA)
07:18PM 38.9950 -89.5286 252° West 341 392 15,000 -180 Descending FAA TRACON SMA TRACON (SMA)
07:19PM 38.9842 -89.5636 248° West 342 394 15,000  Level FAA TRACON SMA TRACON (SMA)
07:19PM 38.9744 -89.5992 251° West 344 396 15,000 -180 Level FAA TRACON SMA TRACON (SMA)
07:19PM 38.9597 -89.6433 247° West 347 399 14,900 -600 Descending FAA TRACON SMA TRACON (SMA)
07:20PM 38.9375 -89.7125 248° West 338 389 14,400 -840 Descending FAA TRACON SMA TRACON (SMA)
07:20PM 38.9244 -89.7542 248° West 327 376 14,100 -900 Descending FAA TRACON SMA TRACON (SMA)
07:21PM 38.9139 -89.7867 247° West 323 372 13,800 -780 Descending FAA TRACON SMA TRACON (SMA)
07:21PM 38.9033 -89.8189 247° West 320 368 13,600 -960 Descending FAA TRACON SMA TRACON (SMA)
07:21PM 38.8908 -89.8594 248° West 316 364 13,200 -960 Descending FAA TRACON SMA TRACON (SMA)
07:22PM 38.8800 -89.8911 246° West 314 361 13,000 -300 Descending FAA TRACON SMA TRACON (SMA)
07:22PM 38.8700 -89.9219 247° West 310 357 13,000 -600 Level FAA TRACON SMA TRACON (SMA)
07:22PM 38.8578 -89.9608 248° West 304 350 12,600 -1,380 Descending FAA TRACON SMA TRACON (SMA)
07:23PM 38.8481 -89.9922 248° West 306 352 12,100 -1,500 Descending FAA TRACON SMA TRACON (SMA)
07:23PM 38.8381 -90.0225 247° West 302 348 11,600 -1,980 Descending FAA TRACON SMA TRACON (SMA)
07:23PM 38.8256 -90.0603 247° West 300 345 10,800 -1,980 Descending FAA TRACON SMA TRACON (SMA)
07:24PM 38.8164 -90.0903 249° West 297 342 10,300 -1,200 Descending FAA TRACON SMA TRACON (SMA)
07:24PM 38.8069 -90.1192 247° West 288 331 10,000 -780 Descending FAA TRACON SMA TRACON (SMA)
07:24PM 38.7992 -90.1514 253° West 257 296 9,800 -480 Descending FAA TRACON SMA TRACON (SMA)
07:25PM 38.8058 -90.1750 290° West 242 278 9,700 -780 Descending FAA TRACON SMA TRACON (SMA)
07:25PM 38.8156 -90.1967 300° West 229 264 9,300 -1,560 Descending FAA TRACON SMA TRACON (SMA)
07:25PM 38.8272 -90.2250 298° West 232 267 8,700 -1,320 Descending FAA TRACON SMA TRACON (SMA)
07:26PM 38.8369 -90.2478 299° West 236 272 8,400 -900 Descending FAA TRACON SMA TRACON (SMA)
07:26PM 38.8464 -90.2703 298° West 236 272 8,100 -1,560 Descending FAA TRACON SMA TRACON (SMA)
07:26PM 38.8575 -90.2978 297° West 226 260 7,400 -1,800 Descending FAA TRACON SMA TRACON (SMA)
07:27PM 38.8658 -90.3189 297° West 220 253 6,900 -1,620 Descending FAA TRACON SMA TRACON (SMA)
07:27PM 38.8761 -90.3453 297° West 212 244 6,300 -1,260 Descending FAA TRACON SMA TRACON (SMA)
07:27PM 38.8842 -90.3653 297° West 208 239 6,100 -480 Descending FAA TRACON SMA TRACON (SMA)
07:28PM 38.8919 -90.3853 297° West 204 235 6,000 -780 Descending FAA TRACON SMA TRACON (SMA)
07:28PM 38.9008 -90.4103 295° West 200 230 5,600 -1,080 Descending FAA TRACON SMA TRACON (SMA)
07:28PM 38.9025 -90.4314 276° West 198 228 5,300 -1,080 Descending FAA TRACON SMA TRACON (SMA)
07:29PM 38.8989 -90.4517 257° West 196 226 4,900 -1,500 Descending FAA TRACON SMA TRACON (SMA)
07:29PM 38.8903 -90.4756 245° Southwest 193 222 4,300 -1,500 Descending FAA TRACON SMA TRACON (SMA)
07:29PM 38.8789 -90.4886 222° Southwest 195 224 3,900 -1,260 Descending FAA TRACON SMA TRACON (SMA)
07:30PM 38.8642 -90.4900 184° South 181 208 3,500 -1,320 Descending FAA TRACON SMA TRACON (SMA)
07:30PM 38.8467 -90.4878 174° South 169 194 3,000 -780 Descending FAA TRACON SMA TRACON (SMA)
07:30PM 38.8342 -90.4803 155° Southeast 161 185 3,000  Level FAA TRACON SMA TRACON (SMA)
07:31PM 38.8217 -90.4722 153° Southeast 162 186 3,000 -480 Level FAA TRACON SMA TRACON (SMA)
07:31PM 38.8081 -90.4586 142° Southeast 164 189 2,700 -780 Descending FAA TRACON SMA TRACON (SMA)
07:31PM 38.8000 -90.4461 130° Southeast 151 174 2,500 -960 Descending FAA TRACON SMA TRACON (SMA)
07:32PM 38.7942 -90.4342 122° Southeast 136 157 2,100 -1,080 Descending FAA TRACON SMA TRACON (SMA)
07:32PM 38.7869 -90.4200 123° Southeast 122 140 1,800 -780 Descending FAA TRACON SMA TRACON (SMA)
07:32PM 38.7819 -90.4086 119° Southeast 119 137 1,600 -660 Descending FAA TRACON SMA TRACON (SMA)
07:33PM 38.7761 -90.3972 123° Southeast 123 142 1,400 -600 Descending FAA TRACON SMA TRACON (SMA)